createdAt,value
2017-04-17T00:00:43.657Z,0
2017-04-17T00:01:44.269Z,0
2017-04-17T00:02:44.883Z,0
2017-04-17T00:03:45.475Z,0
2017-04-17T00:04:46.069Z,0
2017-04-17T00:05:46.669Z,0
2017-04-17T00:06:47.277Z,0
2017-04-17T00:07:47.878Z,0
2017-04-17T00:08:48.490Z,0
2017-04-17T00:09:49.090Z,0
2017-04-17T00:10:49.707Z,0
2017-04-17T00:11:50.305Z,0
2017-04-17T00:12:50.898Z,0
2017-04-17T00:13:51.493Z,0
2017-04-17T00:14:52.088Z,0
2017-04-17T00:15:52.684Z,0
2017-04-17T00:16:53.296Z,0
2017-04-17T00:17:53.891Z,0
2017-04-17T00:18:54.487Z,0
2017-04-17T00:19:55.082Z,0
2017-04-17T00:20:55.717Z,0
2017-04-17T00:21:56.319Z,0
2017-04-17T00:22:56.911Z,0
2017-04-17T00:23:57.505Z,0
2017-04-17T00:24:58.106Z,0
2017-04-17T00:25:58.702Z,0
2017-04-17T00:26:59.294Z,0
2017-04-17T00:27:59.890Z,0
2017-04-17T00:29:00.485Z,0
2017-04-17T00:30:01.086Z,0
2017-04-17T00:31:01.689Z,0
2017-04-17T00:32:02.279Z,0
2017-04-17T00:33:02.873Z,0
2017-04-17T00:34:03.470Z,0
2017-04-17T00:35:04.088Z,0
2017-04-17T00:36:04.679Z,0
2017-04-17T00:37:05.276Z,0
2017-04-17T00:38:05.872Z,0
2017-04-17T00:39:06.483Z,0
2017-04-17T00:40:07.094Z,0
2017-04-17T00:41:07.691Z,0
2017-04-17T00:42:08.289Z,0
2017-04-17T00:43:08.881Z,0
2017-04-17T00:44:09.477Z,0
2017-04-17T00:45:10.072Z,0
2017-04-17T00:46:10.676Z,0
2017-04-17T00:47:11.291Z,0
2017-04-17T00:48:11.891Z,0
2017-04-17T00:49:12.502Z,0
2017-04-17T00:50:13.097Z,0
2017-04-17T00:51:13.698Z,0
2017-04-17T00:52:14.309Z,0
2017-04-17T00:53:14.906Z,0
2017-04-17T00:54:15.509Z,0
2017-04-17T00:55:16.101Z,0
2017-04-17T00:56:16.712Z,0
2017-04-17T00:57:17.307Z,0
2017-04-17T00:58:17.904Z,0
2017-04-17T00:59:18.501Z,0
2017-04-17T01:00:19.096Z,0
2017-04-17T01:01:19.692Z,0
2017-04-17T01:02:20.288Z,0
2017-04-17T01:03:20.899Z,0
2017-04-17T01:04:21.499Z,0
2017-04-17T01:05:22.093Z,0
2017-04-17T01:06:22.687Z,0
2017-04-17T01:07:23.287Z,0
2017-04-17T01:08:23.883Z,0
2017-04-17T01:09:24.491Z,0
2017-04-17T01:10:25.103Z,0
2017-04-17T01:11:25.699Z,0
2017-04-17T01:12:26.299Z,0
2017-04-17T01:13:26.890Z,0
2017-04-17T01:14:27.490Z,0
2017-04-17T01:15:28.089Z,0
2017-04-17T01:16:28.682Z,0
2017-04-17T01:17:29.284Z,0
2017-04-17T01:18:29.874Z,0
2017-04-17T01:19:30.469Z,0
2017-04-17T01:20:31.065Z,0
2017-04-17T01:21:31.660Z,0
2017-04-17T01:22:32.256Z,0
2017-04-17T01:23:32.859Z,0
2017-04-17T01:24:33.454Z,0
2017-04-17T01:25:34.051Z,0
2017-04-17T01:26:34.668Z,0
2017-04-17T01:27:35.268Z,0
2017-04-17T01:28:35.859Z,0
2017-04-17T01:29:36.462Z,0
2017-04-17T01:30:37.054Z,0
2017-04-17T01:31:37.651Z,0
2017-04-17T01:32:38.254Z,0
2017-04-17T01:33:38.846Z,0
2017-04-17T01:34:39.446Z,0
2017-04-17T01:35:40.058Z,0
2017-04-17T01:36:40.660Z,0
2017-04-17T01:37:41.253Z,0
2017-04-17T01:38:41.849Z,0
2017-04-17T01:39:42.444Z,0
2017-04-17T01:40:43.040Z,0
2017-04-17T01:41:43.638Z,0
2017-04-17T01:42:44.231Z,0
2017-04-17T01:43:44.826Z,0
2017-04-17T01:44:45.430Z,0
2017-04-17T01:45:46.024Z,0
2017-04-17T01:46:46.639Z,0
2017-04-17T01:47:47.220Z,0
2017-04-17T01:48:47.814Z,0
2017-04-17T01:49:48.415Z,0
2017-04-17T01:50:49.011Z,0
2017-04-17T01:51:49.602Z,0
2017-04-17T01:52:50.199Z,0
2017-04-17T01:53:50.794Z,0
2017-04-17T01:54:51.389Z,0
2017-04-17T01:55:51.986Z,0
2017-04-17T01:56:52.597Z,0
2017-04-17T01:57:53.192Z,0
2017-04-17T01:58:53.803Z,0
2017-04-17T01:59:54.398Z,0
2017-04-17T02:00:54.993Z,0
2017-04-17T02:01:55.604Z,0
2017-04-17T02:02:56.205Z,0
2017-04-17T02:03:56.798Z,0
2017-04-17T02:04:57.400Z,0
2017-04-17T02:05:58.001Z,0
2017-04-17T02:06:58.594Z,0
2017-04-17T02:07:59.188Z,0
2017-04-17T02:08:59.790Z,0
2017-04-17T02:10:00.383Z,0
2017-04-17T02:11:00.982Z,0
2017-04-17T02:12:01.599Z,0
2017-04-17T02:13:02.196Z,0
2017-04-17T02:14:02.789Z,0
2017-04-17T02:15:03.384Z,0
2017-04-17T02:16:03.993Z,0
2017-04-17T02:17:04.588Z,0
2017-04-17T02:18:05.393Z,0
2017-04-17T02:19:05.989Z,0
2017-04-17T02:20:06.584Z,0
2017-04-17T02:21:07.180Z,0
2017-04-17T02:22:07.797Z,0
2017-04-17T02:23:08.390Z,0
2017-04-17T02:24:08.987Z,0
2017-04-17T02:25:09.581Z,0
2017-04-17T02:26:10.178Z,0
2017-04-17T02:27:10.772Z,0
2017-04-17T02:28:11.373Z,0
2017-04-17T02:29:11.987Z,0
2017-04-17T02:30:12.578Z,0
2017-04-17T02:31:13.175Z,0
2017-04-17T02:32:13.786Z,0
2017-04-17T02:33:14.380Z,0
2017-04-17T02:34:14.982Z,0
2017-04-17T02:35:15.575Z,0
2017-04-17T02:36:16.169Z,0
2017-04-17T02:37:16.767Z,0
2017-04-17T02:38:17.367Z,0
2017-04-17T02:39:17.960Z,0
2017-04-17T02:40:18.555Z,0
2017-04-17T02:41:19.154Z,0
2017-04-17T02:42:19.747Z,0
2017-04-17T02:43:20.341Z,0
2017-04-17T02:44:20.952Z,0
2017-04-17T02:45:21.549Z,0
2017-04-17T02:46:22.143Z,0
2017-04-17T02:47:22.740Z,0
2017-04-17T02:48:23.351Z,0
2017-04-17T02:49:23.962Z,0
2017-04-17T02:50:24.557Z,0
2017-04-17T02:51:25.154Z,0
2017-04-17T02:52:25.768Z,0
2017-04-17T02:53:26.376Z,0
2017-04-17T02:54:26.988Z,0
2017-04-17T02:55:27.583Z,0
2017-04-17T02:56:28.201Z,0
2017-04-17T02:57:28.957Z,0
2017-04-17T02:58:29.553Z,0
2017-04-17T02:59:30.148Z,0
2017-04-17T03:00:30.743Z,0
2017-04-17T03:01:31.339Z,0
2017-04-17T03:02:31.934Z,0
2017-04-17T03:03:32.530Z,0
2017-04-17T03:04:33.125Z,0
2017-04-17T03:05:33.721Z,0
2017-04-17T03:06:34.318Z,0
2017-04-17T03:07:34.912Z,0
2017-04-17T03:08:35.514Z,0
2017-04-17T03:09:36.109Z,0
2017-04-17T03:10:36.720Z,0
2017-04-17T03:11:37.320Z,0
2017-04-17T03:12:37.915Z,0
2017-04-17T03:13:38.512Z,0
2017-04-17T03:14:39.108Z,0
2017-04-17T03:15:39.703Z,0
2017-04-17T03:16:40.304Z,0
2017-04-17T03:17:40.899Z,0
2017-04-17T03:18:41.509Z,0
2017-04-17T03:19:42.105Z,0
2017-04-17T03:20:42.706Z,0
2017-04-17T03:21:43.322Z,0
2017-04-17T03:22:43.916Z,0
2017-04-17T03:23:44.510Z,0
2017-04-17T03:24:45.165Z,0
2017-04-17T03:25:45.762Z,0
2017-04-17T03:26:46.357Z,0
2017-04-17T03:27:46.953Z,0
2017-04-17T03:28:47.555Z,0
2017-04-17T03:29:48.153Z,0
2017-04-17T03:30:48.746Z,0
2017-04-17T03:31:49.413Z,0
2017-04-17T03:32:50.071Z,0
2017-04-17T03:33:50.663Z,0
2017-04-17T03:34:51.259Z,0
2017-04-17T03:35:51.876Z,0
2017-04-17T03:36:53.199Z,0
2017-04-17T03:37:53.796Z,0
2017-04-17T03:38:54.405Z,0
2017-04-17T03:39:55.005Z,0
2017-04-17T03:40:55.616Z,0
2017-04-17T03:41:56.210Z,0
2017-04-17T03:42:56.827Z,0
2017-04-17T03:43:57.420Z,0
2017-04-17T03:44:58.015Z,0
2017-04-17T03:45:58.625Z,0
2017-04-17T03:46:59.229Z,0
2017-04-17T03:47:59.849Z,0
2017-04-17T03:49:00.444Z,0
2017-04-17T03:50:01.045Z,0
2017-04-17T03:51:01.640Z,0
2017-04-17T03:52:02.234Z,0
2017-04-17T03:53:02.830Z,0
2017-04-17T03:54:03.424Z,0
2017-04-17T03:55:04.018Z,0
2017-04-17T03:56:04.620Z,0
2017-04-17T03:57:05.212Z,0
2017-04-17T03:58:05.806Z,0
2017-04-17T03:59:06.402Z,0
2017-04-17T04:00:06.996Z,0
2017-04-17T04:01:07.598Z,0
2017-04-17T04:02:08.208Z,0
2017-04-17T04:03:08.806Z,0
2017-04-17T04:04:09.398Z,0
2017-04-17T04:05:10.053Z,0
2017-04-17T04:06:10.663Z,0
2017-04-17T04:07:11.257Z,0
2017-04-17T04:08:11.858Z,0
2017-04-17T04:09:12.467Z,0
2017-04-17T04:10:13.077Z,0
2017-04-17T04:11:13.670Z,0
2017-04-17T04:12:14.273Z,0
2017-04-17T04:13:14.863Z,0
2017-04-17T04:14:15.468Z,0
2017-04-17T04:15:16.078Z,0
2017-04-17T04:16:16.668Z,0
2017-04-17T04:17:17.264Z,0
2017-04-17T04:18:17.862Z,0
2017-04-17T04:19:18.452Z,0
2017-04-17T04:20:19.052Z,0
2017-04-17T04:21:19.649Z,0
2017-04-17T04:22:20.248Z,0
2017-04-17T04:23:20.840Z,0
2017-04-17T04:24:21.436Z,0
2017-04-17T04:25:22.029Z,0
2017-04-17T04:26:22.631Z,0
2017-04-17T04:27:23.241Z,0
2017-04-17T04:28:23.839Z,0
2017-04-17T04:29:24.440Z,0
2017-04-17T04:30:25.031Z,0
2017-04-17T04:31:25.624Z,0
2017-04-17T04:32:26.221Z,0
2017-04-17T04:33:26.822Z,0
2017-04-17T04:34:27.414Z,0
2017-04-17T04:35:28.015Z,0
2017-04-17T04:36:28.607Z,0
2017-04-17T04:37:29.202Z,0
2017-04-17T04:38:29.796Z,0
2017-04-17T04:39:30.394Z,0
2017-04-17T04:40:30.989Z,0
2017-04-17T04:41:31.584Z,5
2017-04-17T04:42:32.182Z,5
2017-04-17T04:43:32.799Z,5
2017-04-17T04:44:33.400Z,5
2017-04-17T04:45:34.012Z,5
2017-04-17T04:46:34.622Z,5
2017-04-17T04:47:35.220Z,5
2017-04-17T04:48:35.854Z,10
2017-04-17T04:49:36.451Z,10
2017-04-17T04:50:37.061Z,10
2017-04-17T04:51:37.714Z,10
2017-04-17T04:52:38.312Z,15
2017-04-17T04:53:38.915Z,15
2017-04-17T04:54:39.508Z,15
2017-04-17T04:55:40.112Z,20
2017-04-17T04:56:40.724Z,20
2017-04-17T04:57:41.341Z,25
2017-04-17T04:58:41.936Z,25
2017-04-17T04:59:42.531Z,30
2017-04-17T05:00:43.129Z,30
2017-04-17T05:01:43.730Z,30
2017-04-17T05:02:44.327Z,30
2017-04-17T05:03:44.924Z,25
2017-04-17T05:04:45.528Z,25
2017-04-17T05:05:46.124Z,20
2017-04-17T05:06:46.777Z,20
2017-04-17T05:07:47.393Z,25
2017-04-17T05:08:47.992Z,25
2017-04-17T05:09:48.589Z,25
2017-04-17T05:10:49.187Z,25
2017-04-17T05:11:49.800Z,25
2017-04-17T05:12:50.397Z,30
2017-04-17T05:13:50.997Z,30
2017-04-17T05:14:51.593Z,30
2017-04-17T05:15:52.196Z,30
2017-04-17T05:16:52.789Z,35
2017-04-17T05:17:53.388Z,35
2017-04-17T05:18:53.985Z,35
2017-04-17T05:19:54.603Z,40
2017-04-17T05:20:55.202Z,40
2017-04-17T05:21:55.797Z,45
2017-04-17T05:22:56.397Z,45
2017-04-17T05:23:57.012Z,45
2017-04-17T05:24:57.699Z,45
2017-04-17T05:25:58.304Z,45
2017-04-17T05:26:58.900Z,45
2017-04-17T05:27:59.497Z,45
2017-04-17T05:29:00.094Z,45
2017-04-17T05:30:00.693Z,45
2017-04-17T05:31:01.290Z,40
2017-04-17T05:32:01.887Z,40
2017-04-17T05:33:02.490Z,40
2017-04-17T05:34:03.103Z,40
2017-04-17T05:35:03.706Z,40
2017-04-17T05:36:04.303Z,40
2017-04-17T05:37:04.899Z,40
2017-04-17T05:38:05.496Z,40
2017-04-17T05:39:06.094Z,40
2017-04-17T05:40:06.764Z,40
2017-04-17T05:41:07.384Z,40
2017-04-17T05:42:07.981Z,40
2017-04-17T05:43:08.580Z,40
2017-04-17T05:44:09.177Z,40
2017-04-17T05:45:09.794Z,40
2017-04-17T05:46:10.390Z,35
2017-04-17T05:47:10.994Z,35
2017-04-17T05:48:11.606Z,35
2017-04-17T05:49:12.205Z,35
2017-04-17T05:50:12.801Z,35
2017-04-17T05:51:13.401Z,35
2017-04-17T05:52:14.004Z,35
2017-04-17T05:53:14.599Z,35
2017-04-17T05:54:15.203Z,35
2017-04-17T05:55:15.796Z,35
2017-04-17T05:56:16.396Z,35
2017-04-17T05:57:17.067Z,35
2017-04-17T05:58:17.666Z,35
2017-04-17T05:59:18.270Z,35
2017-04-17T06:00:18.868Z,35
2017-04-17T06:01:19.467Z,30
2017-04-17T06:02:20.065Z,30
2017-04-17T06:03:20.662Z,30
2017-04-17T06:04:21.267Z,30
2017-04-17T06:05:21.864Z,30
2017-04-17T06:06:22.461Z,30
2017-04-17T06:07:23.059Z,30
2017-04-17T06:08:23.663Z,35
2017-04-17T06:09:24.266Z,35
2017-04-17T06:10:24.879Z,35
2017-04-17T06:11:25.478Z,35
2017-04-17T06:12:26.085Z,35
2017-04-17T06:13:26.685Z,35
2017-04-17T06:14:27.300Z,35
2017-04-17T06:15:27.898Z,40
2017-04-17T06:16:28.497Z,40
2017-04-17T06:17:29.141Z,40
2017-04-17T06:18:29.745Z,40
2017-04-17T06:19:30.342Z,45
2017-04-17T06:20:30.942Z,45
2017-04-17T06:21:31.540Z,45
2017-04-17T06:22:32.153Z,45
2017-04-17T06:23:32.760Z,45
2017-04-17T06:24:33.356Z,50
2017-04-17T06:25:33.962Z,55
2017-04-17T06:26:34.561Z,55
2017-04-17T06:27:35.159Z,55
2017-04-17T06:28:35.785Z,55
2017-04-17T06:29:36.387Z,55
2017-04-17T06:30:36.992Z,55
2017-04-17T06:31:37.588Z,55
2017-04-17T06:32:38.228Z,55
2017-04-17T06:33:38.878Z,55
2017-04-17T06:34:39.482Z,55
2017-04-17T06:35:40.078Z,60
2017-04-17T06:36:40.678Z,60
2017-04-17T06:37:41.284Z,60
2017-04-17T06:38:41.881Z,60
2017-04-17T06:39:42.498Z,60
2017-04-17T06:40:43.098Z,65
2017-04-17T06:41:43.701Z,65
2017-04-17T06:42:44.301Z,65
2017-04-17T06:43:44.900Z,70
2017-04-17T06:44:45.502Z,70
2017-04-17T06:45:46.102Z,70
2017-04-17T06:46:46.704Z,65
2017-04-17T06:47:47.321Z,65
2017-04-17T06:48:47.922Z,65
2017-04-17T06:49:48.567Z,65
2017-04-17T06:50:49.170Z,65
2017-04-17T06:51:49.795Z,70
2017-04-17T06:52:50.393Z,70
2017-04-17T06:53:50.997Z,75
2017-04-17T06:54:51.594Z,75
2017-04-17T06:55:52.201Z,75
2017-04-17T06:56:52.805Z,80
2017-04-17T06:57:53.403Z,80
2017-04-17T06:58:54.010Z,80
2017-04-17T06:59:54.607Z,80
2017-04-17T07:00:55.214Z,85
2017-04-17T07:01:55.812Z,85
2017-04-17T07:02:56.427Z,85
2017-04-17T07:03:57.033Z,85
2017-04-17T07:04:57.644Z,80
2017-04-17T07:05:58.267Z,70
2017-04-17T07:06:58.938Z,65
2017-04-17T07:07:59.559Z,65
2017-04-17T07:09:00.158Z,60
2017-04-17T07:10:00.758Z,60
2017-04-17T07:11:01.362Z,60
2017-04-17T07:12:01.975Z,60
2017-04-17T07:13:02.576Z,60
2017-04-17T07:14:03.175Z,60
2017-04-17T07:15:03.803Z,55
2017-04-17T07:16:04.401Z,55
2017-04-17T07:17:05.002Z,55
2017-04-17T07:18:05.604Z,55
2017-04-17T07:19:06.204Z,55
2017-04-17T07:20:06.804Z,55
2017-04-17T07:21:07.420Z,55
2017-04-17T07:22:08.019Z,55
2017-04-17T07:23:08.620Z,55
2017-04-17T07:24:09.241Z,55
2017-04-17T07:25:09.835Z,55
2017-04-17T07:26:10.437Z,60
2017-04-17T07:27:11.041Z,65
2017-04-17T07:28:11.638Z,75
2017-04-17T07:29:12.239Z,85
2017-04-17T07:30:12.839Z,95
2017-04-17T07:31:13.448Z,110
2017-04-17T07:32:14.049Z,120
2017-04-17T07:33:14.649Z,130
2017-04-17T07:34:15.251Z,145
2017-04-17T07:35:15.875Z,145
2017-04-17T07:36:16.474Z,140
2017-04-17T07:37:17.083Z,145
2017-04-17T07:38:17.680Z,150
2017-04-17T07:39:18.287Z,170
2017-04-17T07:40:18.896Z,180
2017-04-17T07:41:19.513Z,195
2017-04-17T07:42:20.121Z,180
2017-04-17T07:43:20.724Z,175
2017-04-17T07:44:21.340Z,175
2017-04-17T07:45:21.943Z,190
2017-04-17T07:46:22.547Z,190
2017-04-17T07:47:23.150Z,195
2017-04-17T07:48:23.752Z,195
2017-04-17T07:49:24.360Z,200
2017-04-17T07:50:24.959Z,200
2017-04-17T07:51:25.565Z,200
2017-04-17T07:52:26.181Z,195
2017-04-17T07:53:26.785Z,185
2017-04-17T07:54:27.390Z,180
2017-04-17T07:55:27.995Z,185
2017-04-17T07:56:28.595Z,185
2017-04-17T07:57:29.204Z,195
2017-04-17T07:58:29.804Z,200
2017-04-17T07:59:30.410Z,210
2017-04-17T08:00:31.014Z,210
2017-04-17T08:01:31.621Z,205
2017-04-17T08:02:32.223Z,200
2017-04-17T08:03:32.828Z,220
2017-04-17T08:04:33.429Z,220
2017-04-17T08:05:34.034Z,220
2017-04-17T08:06:34.646Z,220
2017-04-17T08:07:35.252Z,225
2017-04-17T08:08:35.853Z,230
2017-04-17T08:09:36.456Z,240
2017-04-17T08:10:37.061Z,250
2017-04-17T08:11:37.664Z,235
2017-04-17T08:12:38.270Z,215
2017-04-17T08:13:38.899Z,205
2017-04-17T08:14:39.548Z,210
2017-04-17T08:15:40.154Z,215
2017-04-17T08:16:40.765Z,225
2017-04-17T08:17:41.366Z,240
2017-04-17T08:18:41.986Z,240
2017-04-17T08:19:42.589Z,235
2017-04-17T08:20:43.244Z,235
2017-04-17T08:21:43.849Z,240
2017-04-17T08:22:44.454Z,245
2017-04-17T08:23:45.059Z,235
2017-04-17T08:24:45.666Z,255
2017-04-17T08:25:46.271Z,280
2017-04-17T08:26:46.880Z,350
2017-04-17T08:27:47.483Z,330
2017-04-17T08:28:48.087Z,350
2017-04-17T08:29:48.695Z,330
2017-04-17T08:30:49.309Z,385
2017-04-17T08:31:49.916Z,420
2017-04-17T08:32:50.522Z,400
2017-04-17T08:33:51.134Z,535
2017-04-17T08:34:51.739Z,735
2017-04-17T08:35:52.348Z,750
2017-04-17T08:36:52.972Z,605
2017-04-17T08:37:53.580Z,515
2017-04-17T08:38:54.191Z,710
2017-04-17T08:39:54.805Z,695
2017-04-17T08:40:55.424Z,620
2017-04-17T08:41:56.031Z,740
2017-04-17T08:42:56.642Z,620
2017-04-17T08:43:57.263Z,750
2017-04-17T08:44:58.144Z,715
2017-04-17T08:45:58.759Z,645
2017-04-17T08:46:59.375Z,485
2017-04-17T08:47:59.990Z,445
2017-04-17T08:49:00.606Z,400
2017-04-17T08:50:01.221Z,355
2017-04-17T08:51:02.046Z,385
2017-04-17T08:52:02.680Z,465
2017-04-17T08:53:03.293Z,630
2017-04-17T08:54:03.909Z,560
2017-04-17T08:55:04.525Z,535
2017-04-17T08:56:05.157Z,540
2017-04-17T08:57:05.788Z,590
2017-04-17T08:58:06.410Z,580
2017-04-17T08:59:07.025Z,525
2017-04-17T09:00:07.642Z,430
2017-04-17T09:01:08.257Z,420
2017-04-17T09:02:08.875Z,400
2017-04-17T09:03:09.511Z,460
2017-04-17T09:04:10.125Z,480
2017-04-17T09:05:10.742Z,455
2017-04-17T09:06:11.360Z,555
2017-04-17T09:07:12.225Z,500
2017-04-17T09:08:12.842Z,415
2017-04-17T09:09:13.457Z,405
2017-04-17T09:10:14.081Z,395
2017-04-17T09:11:14.694Z,395
2017-04-17T09:12:15.308Z,355
2017-04-17T09:13:15.945Z,340
2017-04-17T09:14:16.810Z,455
2017-04-17T09:15:17.429Z,440
2017-04-17T09:16:18.039Z,390
2017-04-17T09:17:18.674Z,350
2017-04-17T09:18:19.285Z,340
2017-04-17T09:19:19.903Z,330
2017-04-17T09:20:20.518Z,335
2017-04-17T09:21:21.134Z,325
2017-04-17T09:22:21.751Z,305
2017-04-17T09:23:22.368Z,305
2017-04-17T09:24:22.977Z,285
2017-04-17T09:25:23.606Z,295
2017-04-17T09:26:24.235Z,280
2017-04-17T09:27:24.847Z,275
2017-04-17T09:28:25.461Z,270
2017-04-17T09:29:26.073Z,270
2017-04-17T09:30:26.684Z,275
2017-04-17T09:31:27.311Z,275
2017-04-17T09:32:27.921Z,275
2017-04-17T09:33:28.532Z,265
2017-04-17T09:34:29.161Z,265
2017-04-17T09:35:29.771Z,250
2017-04-17T09:36:30.387Z,245
2017-04-17T09:37:31.011Z,255
2017-04-17T09:38:31.622Z,240
2017-04-17T09:39:32.231Z,225
2017-04-17T09:40:32.842Z,215
2017-04-17T09:41:33.452Z,195
2017-04-17T09:42:34.066Z,185
2017-04-17T09:43:34.692Z,175
2017-04-17T09:44:35.300Z,170
2017-04-17T09:45:35.914Z,160
2017-04-17T09:46:36.525Z,150
2017-04-17T09:47:37.132Z,145
2017-04-17T09:48:37.741Z,135
2017-04-17T09:49:38.351Z,125
2017-04-17T09:50:38.966Z,115
2017-04-17T09:51:39.590Z,110
2017-04-17T09:52:40.199Z,105
2017-04-17T09:53:40.809Z,95
2017-04-17T09:54:41.438Z,85
2017-04-17T09:55:42.045Z,75
2017-04-17T09:56:42.651Z,70
2017-04-17T09:57:43.257Z,65
2017-04-17T09:58:43.863Z,65
2017-04-17T09:59:44.468Z,60
2017-04-17T10:00:45.075Z,60
2017-04-17T10:01:45.680Z,60
2017-04-17T10:02:46.291Z,60
2017-04-17T10:03:46.894Z,65
2017-04-17T10:04:47.505Z,65
2017-04-17T10:05:48.105Z,65
2017-04-17T10:06:48.715Z,60
2017-04-17T10:07:49.316Z,60
2017-04-17T10:08:49.922Z,60
2017-04-17T10:09:50.542Z,55
2017-04-17T10:10:51.163Z,50
2017-04-17T10:11:51.765Z,50
2017-04-17T10:12:52.369Z,50
2017-04-17T10:13:52.978Z,45
2017-04-17T10:14:53.680Z,45
2017-04-17T10:15:54.285Z,50
2017-04-17T10:16:54.886Z,50
2017-04-17T10:17:55.489Z,50
2017-04-17T10:18:56.114Z,45
2017-04-17T10:19:56.716Z,50
2017-04-17T10:20:57.321Z,55
2017-04-17T10:21:57.925Z,65
2017-04-17T10:22:58.550Z,65
2017-04-17T10:23:59.150Z,60
2017-04-17T10:24:59.755Z,60
2017-04-17T10:26:00.374Z,65
2017-04-17T10:27:00.996Z,75
2017-04-17T10:28:01.603Z,80
2017-04-17T10:29:02.205Z,85
2017-04-17T10:30:02.813Z,90
2017-04-17T10:31:03.413Z,90
2017-04-17T10:32:04.017Z,90
2017-04-17T10:33:04.620Z,90
2017-04-17T10:34:05.225Z,95
2017-04-17T10:35:05.831Z,100
2017-04-17T10:36:06.439Z,110
2017-04-17T10:37:07.046Z,115
2017-04-17T10:38:07.654Z,120
2017-04-17T10:39:08.255Z,125
2017-04-17T10:40:08.860Z,125
2017-04-17T10:41:09.538Z,135
2017-04-17T10:42:10.157Z,140
2017-04-17T10:43:10.760Z,135
2017-04-17T10:44:11.365Z,140
2017-04-17T10:45:11.968Z,140
2017-04-17T10:46:12.580Z,150
2017-04-17T10:47:13.183Z,155
2017-04-17T10:48:13.787Z,155
2017-04-17T10:49:14.397Z,155
2017-04-17T10:50:14.999Z,150
2017-04-17T10:51:15.607Z,145
2017-04-17T10:52:16.210Z,145
2017-04-17T10:53:16.823Z,145
2017-04-17T10:54:17.448Z,145
2017-04-17T10:55:18.056Z,145
2017-04-17T10:56:18.659Z,145
2017-04-17T10:57:19.265Z,155
2017-04-17T10:58:19.868Z,160
2017-04-17T10:59:20.473Z,170
2017-04-17T11:00:21.083Z,185
2017-04-17T11:01:21.686Z,180
2017-04-17T11:02:22.292Z,165
2017-04-17T11:03:22.898Z,155
2017-04-17T11:04:23.507Z,145
2017-04-17T11:05:24.131Z,135
2017-04-17T11:06:24.733Z,130
2017-04-17T11:07:25.338Z,120
2017-04-17T11:08:25.944Z,120
2017-04-17T11:09:26.549Z,120
2017-04-17T11:10:27.156Z,110
2017-04-17T11:11:27.762Z,110
2017-04-17T11:12:28.372Z,110
2017-04-17T11:13:28.974Z,110
2017-04-17T11:14:29.586Z,110
2017-04-17T11:15:30.188Z,125
2017-04-17T11:16:30.795Z,155
2017-04-17T11:17:31.400Z,160
2017-04-17T11:18:32.227Z,165
2017-04-17T11:19:32.837Z,160
2017-04-17T11:20:33.457Z,150
2017-04-17T11:21:34.064Z,140
2017-04-17T11:22:34.675Z,120
2017-04-17T11:23:35.283Z,110
2017-04-17T11:24:35.911Z,105
2017-04-17T11:25:36.510Z,100
2017-04-17T11:26:37.114Z,95
2017-04-17T11:27:37.719Z,95
2017-04-17T11:28:38.330Z,95
2017-04-17T11:29:38.933Z,90
2017-04-17T11:30:39.536Z,85
2017-04-17T11:31:40.147Z,80
2017-04-17T11:32:40.771Z,80
2017-04-17T11:33:41.373Z,95
2017-04-17T11:34:41.985Z,110
2017-04-17T11:35:42.612Z,105
2017-04-17T11:36:43.218Z,95
2017-04-17T11:37:43.818Z,90
2017-04-17T11:38:44.422Z,80
2017-04-17T11:39:45.033Z,70
2017-04-17T11:40:45.636Z,65
2017-04-17T11:41:46.255Z,65
2017-04-17T11:42:46.873Z,65
2017-04-17T11:43:47.479Z,60
2017-04-17T11:44:48.103Z,65
2017-04-17T11:45:48.706Z,70
2017-04-17T11:46:49.317Z,70
2017-04-17T11:47:49.917Z,65
2017-04-17T11:48:50.538Z,70
2017-04-17T11:49:51.140Z,80
2017-04-17T11:50:51.743Z,80
2017-04-17T11:51:52.353Z,75
2017-04-17T11:52:52.977Z,70
2017-04-17T11:53:53.578Z,75
2017-04-17T11:54:54.187Z,80
2017-04-17T11:55:54.909Z,85
2017-04-17T11:56:55.517Z,90
2017-04-17T11:57:56.116Z,95
2017-04-17T11:58:56.721Z,95
2017-04-17T11:59:57.326Z,100
2017-04-17T12:00:57.937Z,100
2017-04-17T12:01:58.540Z,95
2017-04-17T12:02:59.161Z,100
2017-04-17T12:03:59.765Z,95
2017-04-17T12:05:00.367Z,95
2017-04-17T12:06:00.971Z,95
2017-04-17T12:07:01.574Z,90
2017-04-17T12:08:02.180Z,95
2017-04-17T12:09:02.783Z,95
2017-04-17T12:10:03.385Z,90
2017-04-17T12:11:03.989Z,95
2017-04-17T12:12:04.609Z,95
2017-04-17T12:13:05.217Z,85
2017-04-17T12:14:05.817Z,80
2017-04-17T12:15:06.431Z,75
2017-04-17T12:16:07.035Z,65
2017-04-17T12:17:07.636Z,50
2017-04-17T12:18:08.239Z,50
2017-04-17T12:19:08.841Z,45
2017-04-17T12:20:09.444Z,40
2017-04-17T12:21:10.067Z,40
2017-04-17T12:22:10.669Z,40
2017-04-17T12:23:11.284Z,35
2017-04-17T12:24:11.889Z,35
2017-04-17T12:25:12.490Z,35
2017-04-17T12:26:13.097Z,35
2017-04-17T12:27:13.699Z,40
2017-04-17T12:28:14.306Z,35
2017-04-17T12:29:14.913Z,35
2017-04-17T12:30:15.535Z,30
2017-04-17T12:31:16.136Z,35
2017-04-17T12:32:16.739Z,35
2017-04-17T12:33:17.341Z,45
2017-04-17T12:34:17.944Z,45
2017-04-17T12:35:18.551Z,45
2017-04-17T12:36:19.170Z,55
2017-04-17T12:37:19.778Z,65
2017-04-17T12:38:20.377Z,75
2017-04-17T12:39:20.984Z,85
2017-04-17T12:40:21.601Z,75
2017-04-17T12:41:22.212Z,65
2017-04-17T12:42:22.828Z,80
2017-04-17T12:43:23.437Z,85
2017-04-17T12:44:24.039Z,100
2017-04-17T12:45:24.656Z,90
2017-04-17T12:46:25.258Z,85
2017-04-17T12:47:25.861Z,80
2017-04-17T12:48:26.463Z,85
2017-04-17T12:49:27.066Z,90
2017-04-17T12:50:27.671Z,85
2017-04-17T12:51:28.295Z,85
2017-04-17T12:52:28.897Z,80
2017-04-17T12:53:29.501Z,85
2017-04-17T12:54:30.106Z,90
2017-04-17T12:55:30.712Z,90
2017-04-17T12:56:31.311Z,90
2017-04-17T12:57:31.920Z,85
2017-04-17T12:58:32.522Z,85
2017-04-17T12:59:33.124Z,90
2017-04-17T13:00:33.729Z,100
2017-04-17T13:01:34.332Z,95
2017-04-17T13:02:34.934Z,85
2017-04-17T13:03:35.540Z,85
2017-04-17T13:04:36.142Z,85
2017-04-17T13:05:36.745Z,75
2017-04-17T13:06:37.348Z,70
2017-04-17T13:07:37.953Z,70
2017-04-17T13:08:38.557Z,60
2017-04-17T13:09:39.175Z,60
2017-04-17T13:10:39.784Z,65
2017-04-17T13:11:40.405Z,70
2017-04-17T13:12:41.006Z,85
2017-04-17T13:13:41.609Z,85
2017-04-17T13:14:42.211Z,85
2017-04-17T13:15:42.823Z,90
2017-04-17T13:16:43.424Z,90
2017-04-17T13:17:44.025Z,90
2017-04-17T13:18:44.629Z,80
2017-04-17T13:19:45.232Z,85
2017-04-17T13:20:45.840Z,90
2017-04-17T13:21:46.441Z,90
2017-04-17T13:22:47.059Z,90
2017-04-17T13:23:47.661Z,90
2017-04-17T13:24:48.266Z,95
2017-04-17T13:25:48.874Z,90
2017-04-17T13:26:49.479Z,85
2017-04-17T13:27:50.085Z,80
2017-04-17T13:28:50.755Z,85
2017-04-17T13:29:51.359Z,80
2017-04-17T13:30:51.961Z,80
2017-04-17T13:31:52.570Z,100
2017-04-17T13:32:53.179Z,110
2017-04-17T13:33:53.779Z,110
2017-04-17T13:34:54.384Z,110
2017-04-17T13:35:54.994Z,120
2017-04-17T13:36:55.601Z,140
2017-04-17T13:37:56.202Z,145
2017-04-17T13:38:56.806Z,145
2017-04-17T13:39:57.409Z,140
2017-04-17T13:40:58.019Z,125
2017-04-17T13:41:58.638Z,120
2017-04-17T13:42:59.264Z,120
2017-04-17T13:43:59.915Z,120
2017-04-17T13:45:00.525Z,115
2017-04-17T13:46:01.134Z,115
2017-04-17T13:47:01.740Z,110
2017-04-17T13:48:02.347Z,110
2017-04-17T13:49:02.948Z,105
2017-04-17T13:50:03.553Z,105
2017-04-17T13:51:04.159Z,120
2017-04-17T13:52:04.768Z,140
2017-04-17T13:53:05.370Z,145
2017-04-17T13:54:05.973Z,140
2017-04-17T13:55:06.577Z,130
2017-04-17T13:56:07.184Z,130
2017-04-17T13:57:07.786Z,130
2017-04-17T13:58:08.413Z,130
2017-04-17T13:59:09.014Z,140
2017-04-17T14:00:09.634Z,145
2017-04-17T14:01:10.240Z,150
2017-04-17T14:02:10.858Z,160
2017-04-17T14:03:11.557Z,165
2017-04-17T14:04:12.168Z,150
2017-04-17T14:05:12.769Z,140
2017-04-17T14:06:13.374Z,130
2017-04-17T14:07:13.977Z,130
2017-04-17T14:08:14.581Z,125
2017-04-17T14:09:15.190Z,115
2017-04-17T14:10:15.792Z,105
2017-04-17T14:11:16.395Z,100
2017-04-17T14:12:17.015Z,110
2017-04-17T14:13:17.619Z,125
2017-04-17T14:14:18.225Z,145
2017-04-17T14:15:18.826Z,155
2017-04-17T14:16:19.432Z,150
2017-04-17T14:17:20.036Z,145
2017-04-17T14:18:20.639Z,140
2017-04-17T14:19:21.245Z,120
2017-04-17T14:20:21.848Z,100
2017-04-17T14:21:22.515Z,75
2017-04-17T14:22:23.113Z,75
2017-04-17T14:23:23.718Z,75
2017-04-17T14:24:24.321Z,65
2017-04-17T14:25:24.923Z,60